Time;durP1;ratioP1;P1;durP2;ratioP2;P2;SDS_P1;SDS_P2;PMS_P1;PMS_P2;Temp;Humidity;BMP_temperature;BMP_pressure;BME280_temperature;BME280_humidity;BME280_pressure;Samples;Min_cycle;Max_cycle;Signal;HPM_P1;HPM_P2
2023/08/05 00:01:25;;;;;;;5.55;4.05;;;15.90;99.90;;;;;;5141265;27;20221;-85
2023/08/05 00:03:56;;;;;;;6.50;4.28;;;16.00;99.90;;;;;;5142833;27;20216;-86
2023/08/05 00:06:26;;;;;;;8.55;4.75;;;16.10;99.90;;;;;;5139985;27;20592;-86
2023/08/05 00:08:57;;;;;;;9.20;4.38;;;16.20;99.90;;;;;;5134580;27;20210;-85
2023/08/05 00:11:30;;;;;;;11.38;4.57;;;16.20;99.90;;;;;;5135426;27;20189;-86
2023/08/05 00:14:01;;;;;;;6.00;4.10;;;16.20;99.90;;;;;;5136358;27;20570;-85
2023/08/05 00:16:31;;;;;;;10.45;4.80;;;16.20;99.90;;;;;;5155060;27;20228;-85
2023/08/05 00:19:02;;;;;;;6.22;4.68;;;16.20;99.90;;;;;;5148533;27;20195;-84
2023/08/05 00:21:33;;;;;;;7.32;4.80;;;16.20;99.90;;;;;;5134248;27;20618;-85
2023/08/05 00:24:04;;;;;;;7.68;4.50;;;16.20;99.90;;;;;;5136030;27;20668;-85
2023/08/05 00:26:36;;;;;;;7.68;4.53;;;16.30;99.90;;;;;;5154662;27;20255;-84
2023/08/05 00:29:07;;;;;;;9.82;4.32;;;16.40;99.90;;;;;;5154651;27;20196;-84
2023/08/05 00:31:38;;;;;;;11.85;4.53;;;16.60;99.90;;;;;;5153534;27;20197;-84
2023/08/05 00:34:09;;;;;;;8.18;4.50;;;16.60;99.90;;;;;;5151784;27;20185;-85
2023/08/05 00:36:39;;;;;;;8.27;4.47;;;16.70;99.90;;;;;;5134097;27;20604;-84
2023/08/05 00:39:10;;;;;;;6.90;4.38;;;16.70;99.90;;;;;;5136135;27;20694;-84
2023/08/05 00:41:43;;;;;;;10.40;5.47;;;16.80;99.90;;;;;;5142625;27;20591;-85
2023/08/05 00:44:14;;;;;;;10.38;4.82;;;16.70;99.90;;;;;;5133189;27;20198;-86
2023/08/05 00:46:48;;;;;;;15.25;5.43;;;16.80;99.90;;;;;;5133693;27;20667;-85
2023/08/05 00:49:19;;;;;;;6.90;5.07;;;16.80;99.90;;;;;;5134042;27;20208;-84
2023/08/05 00:51:50;;;;;;;11.52;5.35;;;16.90;99.90;;;;;;5133631;27;20208;-85
2023/08/05 00:54:22;;;;;;;10.30;4.82;;;16.90;99.90;;;;;;5135986;27;20190;-86
2023/08/05 00:56:55;;;;;;;7.55;4.63;;;17.00;99.90;;;;;;5134435;27;20213;-85
2023/08/05 00:59:26;;;;;;;6.63;4.63;;;17.00;99.90;;;;;;5133450;27;20190;-83
2023/08/05 01:01:57;;;;;;;9.15;4.50;;;17.00;99.90;;;;;;5133128;27;20201;-85
2023/08/05 01:04:28;;;;;;;6.20;4.65;;;17.10;99.90;;;;;;5133422;27;20198;-85
2023/08/05 01:07:00;;;;;;;8.88;4.85;;;17.10;99.90;;;;;;5132646;27;20194;-85
2023/08/05 01:09:31;;;;;;;8.38;4.60;;;17.20;99.90;;;;;;5133227;27;20194;-85
2023/08/05 01:12:04;;;;;;;8.63;4.90;;;17.30;99.90;;;;;;5136027;27;20193;-84
2023/08/05 01:14:35;;;;;;;9.15;5.30;;;17.30;99.90;;;;;;5135447;27;20561;-85
2023/08/05 01:17:07;;;;;;;9.98;5.40;;;17.40;99.90;;;;;;5132643;27;20627;-85
2023/08/05 01:19:38;;;;;;;7.85;5.10;;;17.30;99.90;;;;;;5133611;27;20208;-85
2023/08/05 01:22:18;;;;;;;8.50;4.65;;;17.30;99.90;;;;;;5146048;27;20204;-85
2023/08/05 01:24:55;;;;;;;10.23;4.72;;;17.30;99.90;;;;;;5154121;27;20196;-85
2023/08/05 01:27:28;;;;;;;8.15;4.72;;;17.30;99.90;;;;;;5153518;27;20242;-83
2023/08/05 01:29:59;;;;;;;7.43;5.03;;;17.30;99.90;;;;;;5149772;27;20194;-84
2023/08/05 01:32:32;;;;;;;10.77;4.90;;;17.40;99.90;;;;;;5137333;27;20193;-85
2023/08/05 01:35:03;;;;;;;7.85;4.57;;;17.40;99.90;;;;;;5133599;27;20571;-85
2023/08/05 01:37:34;;;;;;;6.65;4.30;;;17.40;99.90;;;;;;5149687;27;20199;-85
2023/08/05 01:40:05;;;;;;;8.23;4.47;;;17.40;99.90;;;;;;5141636;27;20194;-83
2023/08/05 01:42:40;;;;;;;6.07;4.47;;;17.50;99.90;;;;;;5132897;27;20235;-85
2023/08/05 01:45:12;;;;;;;9.27;5.20;;;17.60;99.90;;;;;;5132538;27;20205;-84
2023/08/05 01:47:42;;;;;;;8.77;5.43;;;17.60;99.90;;;;;;5132365;27;20209;-85
2023/08/05 01:50:13;;;;;;;7.60;5.50;;;17.60;99.90;;;;;;5133651;27;20198;-85
2023/08/05 01:52:44;;;;;;;6.38;4.72;;;17.60;99.90;;;;;;5133524;27;20795;-85
2023/08/05 01:55:15;;;;;;;8.93;4.90;;;17.70;99.90;;;;;;5132175;27;20193;-84
2023/08/05 01:57:47;;;;;;;9.02;4.63;;;17.80;99.90;;;;;;5132972;27;20232;-83
2023/08/05 02:00:20;;;;;;;6.88;4.95;;;17.70;99.90;;;;;;5131939;27;20196;-85
2023/08/05 02:02:51;;;;;;;7.53;4.90;;;17.80;99.90;;;;;;5145751;27;20226;-84
2023/08/05 02:05:22;;;;;;;6.20;4.57;;;17.80;99.90;;;;;;5146294;27;20261;-84
2023/08/05 02:07:53;;;;;;;7.03;4.57;;;17.80;99.90;;;;;;5153451;27;20714;-84
2023/08/05 02:10:24;;;;;;;8.82;4.82;;;17.90;99.90;;;;;;5132894;27;20201;-84
2023/08/05 02:12:56;;;;;;;8.15;5.32;;;17.90;99.90;;;;;;5131090;27;20736;-85
2023/08/05 02:15:29;;;;;;;10.68;5.28;;;17.90;99.90;;;;;;5131741;27;20273;-86
2023/08/05 02:17:59;;;;;;;10.98;5.25;;;17.80;99.90;;;;;;5131963;27;20226;-85
2023/08/05 02:20:30;;;;;;;7.80;5.00;;;17.90;99.90;;;;;;5132201;27;20190;-85
2023/08/05 02:23:01;;;;;;;9.50;5.13;;;17.90;99.90;;;;;;5131423;27;20197;-85
2023/08/05 02:25:32;;;;;;;7.80;5.15;;;17.90;99.90;;;;;;5132350;27;20205;-85
2023/08/05 02:28:05;;;;;;;8.80;5.10;;;17.90;99.90;;;;;;5132152;27;20190;-86
2023/08/05 02:30:35;;;;;;;8.50;4.88;;;17.90;99.90;;;;;;5132141;27;20198;-85
2023/08/05 02:33:06;;;;;;;7.20;4.90;;;17.80;99.90;;;;;;5132257;27;20650;-85
2023/08/05 02:35:37;;;;;;;7.15;4.60;;;17.80;99.90;;;;;;5131968;27;20194;-85
2023/08/05 02:38:08;;;;;;;8.73;4.28;;;17.80;99.90;;;;;;5132024;27;20201;-86
2023/08/05 02:40:38;;;;;;;8.77;4.40;;;17.80;99.90;;;;;;5132412;27;20198;-85
2023/08/05 02:43:11;;;;;;;6.10;4.18;;;17.80;99.90;;;;;;5146665;27;20208;-86
2023/08/05 02:45:43;;;;;;;6.38;4.25;;;17.80;99.90;;;;;;5145557;27;20221;-86
2023/08/05 02:48:13;;;;;;;6.63;4.47;;;17.80;99.90;;;;;;5132371;27;20681;-86
2023/08/05 02:50:44;;;;;;;10.55;5.07;;;17.90;99.90;;;;;;5132627;27;20395;-86
2023/08/05 02:53:15;;;;;;;8.27;5.45;;;17.90;99.90;;;;;;5143067;27;20204;-86
2023/08/05 02:55:46;;;;;;;9.30;5.28;;;17.90;99.90;;;;;;5132883;27;20205;-87
2023/08/05 02:58:19;;;;;;;6.78;4.85;;;17.90;99.90;;;;;;5147885;27;20177;-84
2023/08/05 03:00:50;;;;;;;11.45;4.97;;;17.90;99.90;;;;;;5145574;27;20197;-87
2023/08/05 03:03:21;;;;;;;8.20;4.80;;;17.90;99.90;;;;;;5154802;27;20196;-85
2023/08/05 03:05:52;;;;;;;6.90;4.78;;;17.80;99.90;;;;;;5138583;27;20198;-85
2023/08/05 03:08:23;;;;;;;8.60;5.38;;;17.80;99.90;;;;;;5136173;28;20226;-84
2023/08/05 03:11:00;;;;;;;8.50;4.90;;;17.80;99.90;;;;;;5156613;27;20201;-85
2023/08/05 03:13:34;;;;;;;7.97;4.85;;;17.80;99.90;;;;;;5156156;27;20203;-84
2023/08/05 03:16:12;;;;;;;11.48;4.90;;;17.90;99.90;;;;;;5124568;28;20232;-86
2023/08/05 03:18:43;;;;;;;8.13;5.00;;;17.90;99.90;;;;;;5132620;28;20236;-86
2023/08/05 03:21:14;;;;;;;10.27;5.10;;;18.00;99.90;;;;;;5138443;27;20595;-85
2023/08/05 03:23:45;;;;;;;7.18;4.82;;;18.00;99.90;;;;;;5154315;27;20193;-85
2023/08/05 03:26:15;;;;;;;8.27;4.47;;;18.00;99.90;;;;;;5155328;27;20205;-84
2023/08/05 03:28:48;;;;;;;8.50;4.38;;;18.00;99.90;;;;;;5152104;27;20204;-87
2023/08/05 03:31:19;;;;;;;7.07;4.80;;;18.00;99.90;;;;;;5153483;27;20189;-85
2023/08/05 03:33:49;;;;;;;6.15;3.90;;;18.10;99.90;;;;;;5151245;27;20194;-84
2023/08/05 03:36:20;;;;;;;9.18;4.38;;;18.10;99.90;;;;;;5153482;27;20225;-85
2023/08/05 03:38:51;;;;;;;8.43;3.90;;;18.10;99.90;;;;;;5144215;27;20283;-86
2023/08/05 03:41:24;;;;;;;6.57;3.97;;;18.10;99.90;;;;;;5147635;27;20225;-85
2023/08/05 03:43:57;;;;;;;6.05;4.05;;;18.20;99.90;;;;;;5153097;27;20197;-85
2023/08/05 03:46:27;;;;;;;7.03;3.90;;;18.20;99.90;;;;;;5154190;27;20743;-84
2023/08/05 03:48:58;;;;;;;6.72;5.13;;;18.20;99.90;;;;;;5148098;27;20300;-85
2023/08/05 03:51:29;;;;;;;6.15;4.55;;;18.20;99.90;;;;;;5137204;27;20566;-84
2023/08/05 03:54:00;;;;;;;10.60;4.32;;;18.20;99.90;;;;;;5132302;27;20197;-86
2023/08/05 03:56:30;;;;;;;5.63;4.28;;;18.20;99.90;;;;;;5135599;27;20236;-86
2023/08/05 03:59:04;;;;;;;7.30;4.65;;;18.20;99.90;;;;;;5135523;27;20525;-85
2023/08/05 04:01:35;;;;;;;6.82;3.88;;;18.20;99.90;;;;;;5135789;27;20288;-85
2023/08/05 04:04:06;;;;;;;5.47;3.90;;;18.20;99.90;;;;;;5140585;27;20193;-86
2023/08/05 04:06:37;;;;;;;7.10;4.63;;;18.20;99.90;;;;;;5136386;27;20568;-86
2023/08/05 04:09:08;;;;;;;6.65;4.28;;;18.20;99.90;;;;;;5135683;27;20214;-87
2023/08/05 04:11:39;;;;;;;5.22;4.13;;;18.30;99.90;;;;;;5137841;27;20263;-88
2023/08/05 04:14:11;;;;;;;7.63;3.92;;;18.20;99.90;;;;;;5139482;27;20287;-86
2023/08/05 04:16:43;;;;;;;5.10;4.00;;;18.30;99.90;;;;;;5135014;27;20209;-87
2023/08/05 04:19:13;;;;;;;5.28;3.95;;;18.30;99.90;;;;;;5135356;27;20189;-86
2023/08/05 04:21:47;;;;;;;6.97;4.88;;;18.30;99.90;;;;;;5135382;27;20224;-87
2023/08/05 04:24:21;;;;;;;7.63;4.45;;;18.30;99.90;;;;;;5134907;27;20262;-87
2023/08/05 04:26:53;;;;;;;9.95;4.25;;;18.30;99.90;;;;;;5135067;27;20569;-86
2023/08/05 04:29:29;;;;;;;5.28;3.90;;;18.30;99.90;;;;;;5117252;27;20205;-86
2023/08/05 04:32:00;;;;;;;9.43;4.10;;;18.30;99.90;;;;;;5145689;27;20725;-86
2023/08/05 04:34:35;;;;;;;7.05;4.07;;;18.30;99.90;;;;;;5157639;27;20201;-87
2023/08/05 04:37:19;;;;;;;6.60;4.28;;;18.30;99.90;;;;;;5159803;27;20235;-86
2023/08/05 04:39:50;;;;;;;6.15;4.10;;;18.30;99.90;;;;;;5144273;27;20190;-86
2023/08/05 04:42:21;;;;;;;5.53;4.10;;;18.30;99.90;;;;;;5135287;27;20205;-89
2023/08/05 04:44:55;;;;;;;5.40;4.00;;;18.30;99.90;;;;;;5135127;27;20194;-87
2023/08/05 04:47:26;;;;;;;7.28;3.95;;;18.30;99.90;;;;;;5135947;27;20200;-87
2023/08/05 04:49:57;;;;;;;5.70;4.30;;;18.30;99.90;;;;;;5134490;27;20211;-87
2023/08/05 04:52:28;;;;;;;8.70;5.15;;;18.30;99.90;;;;;;5133990;27;20286;-86
2023/08/05 04:54:58;;;;;;;6.25;4.68;;;18.30;99.90;;;;;;5134245;27;20190;-85
2023/08/05 04:57:29;;;;;;;4.55;3.85;;;18.30;99.90;;;;;;5134018;27;20226;-86
2023/08/05 05:00:03;;;;;;;6.25;3.67;;;18.30;99.90;;;;;;5134410;27;20198;-86
2023/08/05 05:02:34;;;;;;;8.18;4.00;;;18.20;99.90;;;;;;5139903;27;20200;-85
2023/08/05 05:05:05;;;;;;;4.90;3.90;;;18.10;99.90;;;;;;5150511;27;20363;-86
2023/08/05 05:07:36;;;;;;;5.57;4.28;;;18.00;99.90;;;;;;5157678;27;20198;-86
2023/08/05 05:10:07;;;;;;;5.57;4.15;;;18.00;99.90;;;;;;5155483;27;20193;-87
2023/08/05 05:12:38;;;;;;;6.13;3.90;;;18.00;99.90;;;;;;5154571;27;20193;-86
2023/08/05 05:15:11;;;;;;;8.32;3.92;;;18.00;99.90;;;;;;5154748;27;20197;-86
2023/08/05 05:17:42;;;;;;;7.35;3.75;;;18.00;99.90;;;;;;5154391;27;20243;-86
2023/08/05 05:20:13;;;;;;;5.35;3.72;;;18.00;99.90;;;;;;5149572;27;20194;-86
2023/08/05 05:22:44;;;;;;;6.05;4.50;;;18.00;99.90;;;;;;5133422;27;20210;-86
2023/08/05 05:25:15;;;;;;;6.28;4.53;;;17.90;99.90;;;;;;5133349;27;20190;-87
2023/08/05 05:27:46;;;;;;;5.13;3.83;;;17.90;99.90;;;;;;5133156;27;20190;-86
2023/08/05 05:30:18;;;;;;;5.68;4.20;;;17.90;99.90;;;;;;5133595;27;20216;-85
2023/08/05 05:32:49;;;;;;;7.63;4.03;;;17.90;99.90;;;;;;5143695;27;20198;-87
2023/08/05 05:35:20;;;;;;;7.38;3.88;;;18.00;99.90;;;;;;5147359;27;20197;-87
2023/08/05 05:38:04;;;;;;;6.40;4.05;;;17.90;99.90;;;;;;5144303;27;20607;-87
2023/08/05 05:40:40;;;;;;;5.90;4.35;;;17.90;99.90;;;;;;5150817;27;20630;-87
2023/08/05 05:43:11;;;;;;;8.77;3.90;;;17.90;99.90;;;;;;5153657;27;20192;-86
2023/08/05 05:45:57;;;;;;;7.22;4.47;;;17.80;99.90;;;;;;5155011;27;20553;-87
2023/08/05 05:48:28;;;;;;;7.53;4.38;;;17.80;99.90;;;;;;5168786;27;20193;-86
2023/08/05 05:51:01;;;;;;;5.00;4.10;;;17.80;99.90;;;;;;5166901;27;20197;-88
2023/08/05 05:53:43;;;;;;;6.15;4.00;;;17.80;99.90;;;;;;5141296;27;20226;-87
2023/08/05 05:56:14;;;;;;;9.40;4.53;;;17.80;99.90;;;;;;5133692;27;20210;-87
2023/08/05 05:58:51;;;;;;;7.40;4.32;;;17.80;99.90;;;;;;5133837;27;20228;-88
2023/08/05 06:01:24;;;;;;;7.00;4.40;;;17.80;99.90;;;;;;5133651;27;20201;-86
2023/08/05 06:03:58;;;;;;;8.23;4.13;;;17.80;99.90;;;;;;5132674;27;20223;-88
2023/08/05 06:06:28;;;;;;;4.88;3.88;;;17.80;99.90;;;;;;5131661;27;20198;-84
2023/08/05 06:09:00;;;;;;;7.65;4.47;;;17.90;99.90;;;;;;5131953;27;20197;-83
2023/08/05 06:11:32;;;;;;;6.20;4.13;;;17.90;99.90;;;;;;5131578;27;20189;-86
2023/08/05 06:14:04;;;;;;;6.72;4.13;;;17.90;99.90;;;;;;5143907;27;20667;-86
2023/08/05 06:16:37;;;;;;;6.68;4.72;;;17.90;99.90;;;;;;5133804;27;20277;-86
2023/08/05 06:19:07;;;;;;;6.18;4.55;;;17.80;99.90;;;;;;5145610;27;20252;-86
2023/08/05 06:21:38;;;;;;;11.30;4.90;;;17.80;99.90;;;;;;5141028;27;20231;-85
2023/08/05 06:24:09;;;;;;;9.38;5.75;;;17.80;99.90;;;;;;5148523;27;20249;-84
2023/08/05 06:26:40;;;;;;;8.82;5.13;;;17.80;99.90;;;;;;5135938;27;20189;-84
2023/08/05 06:29:11;;;;;;;10.70;5.65;;;17.80;99.90;;;;;;5138709;27;20207;-85
2023/08/05 06:31:48;;;;;;;8.48;5.93;;;17.80;99.90;;;;;;5150773;27;20686;-84
2023/08/05 06:37:07;;;;;;;8.57;5.85;;;17.80;99.90;;;;;;5150634;27;20304;-85
2023/08/05 06:39:38;;;;;;;12.52;7.15;;;17.70;99.90;;;;;;5132402;27;20604;-86
2023/08/05 06:42:10;;;;;;;11.73;6.85;;;17.80;99.90;;;;;;5143826;27;20277;-86
2023/08/05 06:44:43;;;;;;;10.60;7.25;;;17.80;99.90;;;;;;5150531;27;20201;-86
2023/08/05 06:47:19;;;;;;;9.70;6.47;;;17.70;99.90;;;;;;5136687;27;20194;-86
2023/08/05 06:49:50;;;;;;;9.30;6.40;;;17.80;99.90;;;;;;5136529;27;20216;-85
2023/08/05 06:52:22;;;;;;;12.27;7.38;;;17.80;99.90;;;;;;5137327;27;20297;-86
2023/08/05 06:54:53;;;;;;;14.25;6.72;;;17.80;99.90;;;;;;5131556;27;20273;-85
2023/08/05 06:57:24;;;;;;;11.00;6.43;;;17.70;99.90;;;;;;5143621;27;20228;-84
2023/08/05 06:59:55;;;;;;;11.50;6.28;;;17.70;99.90;;;;;;5141839;27;20228;-84
2023/08/05 07:02:28;;;;;;;11.73;5.97;;;17.70;99.90;;;;;;5144837;27;20207;-84
2023/08/05 07:04:59;;;;;;;10.80;6.80;;;17.70;99.90;;;;;;5154576;27;20224;-85
2023/08/05 07:07:29;;;;;;;13.52;7.25;;;17.70;99.90;;;;;;5140641;27;20209;-84
2023/08/05 07:10:11;;;;;;;9.43;6.05;;;17.60;99.90;;;;;;5137950;27;20210;-86
2023/08/05 07:12:44;;;;;;;10.80;6.40;;;17.60;99.90;;;;;;5131777;27;20206;-85
2023/08/05 07:15:15;;;;;;;10.48;6.85;;;17.60;99.90;;;;;;5132033;27;20216;-86
2023/08/05 07:17:47;;;;;;;11.43;6.10;;;17.60;99.90;;;;;;5131815;28;20712;-84
2023/08/05 07:20:18;;;;;;;8.65;5.47;;;17.50;99.90;;;;;;5144482;27;20579;-85
2023/08/05 07:22:49;;;;;;;8.60;5.65;;;17.60;99.90;;;;;;5132147;27;20214;-86
2023/08/05 07:25:20;;;;;;;8.80;5.40;;;17.60;99.90;;;;;;5131742;27;20197;-88
2023/08/05 07:27:53;;;;;;;7.95;5.75;;;17.50;99.90;;;;;;5132332;27;20210;-86
2023/08/05 07:30:27;;;;;;;10.18;5.85;;;17.60;99.90;;;;;;5145997;27;20190;-86
2023/08/05 07:32:59;;;;;;;8.07;5.40;;;17.60;99.90;;;;;;5136423;27;20194;-85
2023/08/05 07:35:32;;;;;;;14.38;5.70;;;17.50;99.90;;;;;;5147379;27;20193;-86
2023/08/05 07:38:08;;;;;;;8.05;5.60;;;17.50;99.90;;;;;;5154663;27;20687;-86
2023/08/05 07:40:40;;;;;;;9.75;6.07;;;17.50;99.90;;;;;;5154005;27;20616;-84
2023/08/05 07:43:15;;;;;;;12.52;6.70;;;17.50;99.90;;;;;;5138518;27;20204;-85
2023/08/05 07:45:45;;;;;;;10.77;7.03;;;17.50;99.90;;;;;;5151098;27;20260;-85
2023/08/05 07:48:19;;;;;;;11.82;7.45;;;17.40;99.90;;;;;;5155039;27;20223;-86
2023/08/05 07:50:50;;;;;;;33.53;13.13;;;17.40;99.90;;;;;;5160842;27;20200;-86
2023/08/05 07:56:17;;;;;;;31.13;14.38;;;17.40;99.90;;;;;;5152306;27;20276;-86
2023/08/05 07:58:49;;;;;;;22.15;11.50;;;17.40;99.90;;;;;;5151286;27;20205;-85
2023/08/05 08:01:22;;;;;;;21.85;11.70;;;17.40;99.90;;;;;;5137010;27;20186;-86
2023/08/05 08:04:13;;;;;;;24.27;14.02;;;17.40;99.90;;;;;;5163073;27;20205;-86
2023/08/05 08:06:47;;;;;;;18.60;10.82;;;17.40;99.90;;;;;;5131559;27;20205;-86
2023/08/05 08:12:02;;;;;;;8.20;5.70;;;17.40;99.90;;;;;;5159399;27;20221;-86
2023/08/05 08:14:34;;;;;;;9.93;5.93;;;17.40;99.90;;;;;;5169224;27;20613;-85
2023/08/05 08:17:08;;;;;;;6.68;4.82;;;17.40;99.90;;;;;;5154952;27;20252;-85
2023/08/05 08:19:43;;;;;;;6.72;4.53;;;17.40;99.90;;;;;;5169571;27;20217;-86
2023/08/05 08:22:19;;;;;;;7.22;4.53;;;17.40;99.90;;;;;;5163833;27;20302;-85
2023/08/05 08:24:50;;;;;;;6.82;4.30;;;17.40;99.90;;;;;;5167217;27;20222;-87
2023/08/05 08:27:23;;;;;;;6.72;4.50;;;17.40;99.90;;;;;;5157901;27;20247;-86
2023/08/05 08:30:01;;;;;;;7.10;4.28;;;17.40;99.90;;;;;;5137137;27;20194;-86
2023/08/05 08:32:35;;;;;;;7.07;4.50;;;17.30;99.90;;;;;;5134515;27;20201;-85
2023/08/05 08:35:08;;;;;;;6.30;4.50;;;17.30;99.90;;;;;;5134231;27;20194;-85
2023/08/05 08:37:39;;;;;;;8.43;6.15;;;17.30;99.90;;;;;;5133787;27;20636;-86
2023/08/05 08:40:11;;;;;;;11.93;8.00;;;17.30;99.90;;;;;;5142390;27;20246;-86
2023/08/05 08:42:47;;;;;;;14.63;9.90;;;17.30;99.90;;;;;;5143948;27;20380;-87
2023/08/05 08:45:20;;;;;;;13.68;9.70;;;17.30;99.90;;;;;;5147637;27;20274;-85
2023/08/05 08:47:55;;;;;;;17.15;8.60;;;17.30;99.90;;;;;;5134199;27;20202;-85
2023/08/05 08:50:32;;;;;;;10.10;7.82;;;17.30;99.90;;;;;;5137722;27;20205;-86
2023/08/05 08:53:18;;;;;;;14.60;11.38;;;17.30;99.90;;;;;;5150590;27;20243;-86
2023/08/05 08:55:56;;;;;;;24.60;19.77;;;17.30;99.90;;;;;;5135216;27;20193;-87
2023/08/05 08:58:27;;;;;;;15.07;11.90;;;17.30;99.90;;;;;;5134563;27;20206;-85
2023/08/05 09:00:59;;;;;;;10.10;7.30;;;17.40;99.90;;;;;;5132949;27;20670;-85
2023/08/05 09:03:32;;;;;;;13.70;9.20;;;17.30;99.90;;;;;;5132822;27;20660;-86
2023/08/05 09:06:06;;;;;;;13.07;8.93;;;17.40;99.90;;;;;;5133944;27;20193;-86
2023/08/05 09:08:39;;;;;;;8.45;7.15;;;17.30;99.90;;;;;;5151001;27;20205;-86
2023/08/05 09:11:09;;;;;;;10.20;8.07;;;17.40;99.90;;;;;;5154319;27;20574;-87
2023/08/05 09:13:42;;;;;;;9.68;7.07;;;17.40;99.90;;;;;;5145743;27;20186;-85
2023/08/05 09:16:16;;;;;;;20.02;11.13;;;17.40;99.90;;;;;;5133660;27;20202;-85
2023/08/05 09:18:55;;;;;;;22.50;11.43;;;17.30;99.90;;;;;;5132391;27;20910;-85
2023/08/05 09:21:29;;;;;;;21.25;11.13;;;17.30;99.90;;;;;;5144625;27;20217;-85
2023/08/05 09:24:01;;;;;;;17.08;9.82;;;17.30;99.90;;;;;;5141776;27;20663;-86
2023/08/05 09:26:33;;;;;;;14.50;8.52;;;17.30;99.90;;;;;;5151455;27;20189;-86
2023/08/05 09:29:06;;;;;;;13.70;8.50;;;17.30;99.90;;;;;;5156001;27;20185;-85
2023/08/05 09:31:38;;;;;;;12.80;7.70;;;17.30;99.90;;;;;;5142440;27;20210;-87
2023/08/05 09:34:10;;;;;;;8.93;6.05;;;17.30;99.90;;;;;;5152315;27;20197;-87
2023/08/05 09:36:45;;;;;;;7.90;5.43;;;17.30;99.90;;;;;;5136310;27;20202;-86
2023/08/05 09:39:19;;;;;;;8.75;5.70;;;17.40;99.90;;;;;;5153631;27;20223;-85
2023/08/05 09:41:53;;;;;;;8.20;5.28;;;17.40;99.90;;;;;;5153610;27;20636;-86
2023/08/05 09:44:24;;;;;;;9.55;5.78;;;17.40;99.90;;;;;;5135843;27;20249;-86
2023/08/05 09:46:58;;;;;;;10.05;5.32;;;17.40;99.90;;;;;;5133568;27;20190;-86
2023/08/05 09:49:33;;;;;;;9.32;5.55;;;17.30;99.90;;;;;;5132920;27;20731;-86
2023/08/05 09:52:08;;;;;;;8.63;5.82;;;17.30;99.90;;;;;;5133973;27;20234;-87
2023/08/05 09:54:44;;;;;;;9.93;6.35;;;17.30;99.90;;;;;;5133507;27;20647;-85
2023/08/05 09:57:15;;;;;;;18.65;10.15;;;17.30;99.90;;;;;;5132230;27;20712;-85
2023/08/05 09:59:50;;;;;;;17.35;11.27;;;17.30;99.90;;;;;;5140016;27;20205;-86
2023/08/05 10:02:33;;;;;;;8.88;7.20;;;17.30;99.90;;;;;;5153249;27;20189;-85
2023/08/05 10:05:04;;;;;;;7.53;5.28;;;17.30;99.90;;;;;;5143631;27;20246;-85
2023/08/05 10:07:41;;;;;;;8.07;5.32;;;17.20;99.90;;;;;;5143769;27;20198;-85
2023/08/05 10:10:13;;;;;;;6.65;5.45;;;17.20;99.90;;;;;;5138845;27;20603;-87
2023/08/05 10:12:49;;;;;;;12.45;6.60;;;17.20;99.90;;;;;;5132527;27;20254;-86
2023/08/05 10:15:27;;;;;;;9.10;6.38;;;17.20;99.90;;;;;;5131738;27;20198;-86
2023/08/05 10:17:59;;;;;;;9.40;6.43;;;17.20;99.90;;;;;;5133017;27;20577;-86
2023/08/05 10:20:40;;;;;;;9.35;6.53;;;17.20;99.90;;;;;;5132020;27;20190;-87
2023/08/05 10:23:15;;;;;;;8.15;6.30;;;17.20;99.90;;;;;;5141948;27;20601;-87
2023/08/05 10:25:49;;;;;;;8.70;6.25;;;17.20;99.90;;;;;;5143792;27;20200;-87
2023/08/05 10:28:48;;;;;;;9.88;6.57;;;17.20;99.90;;;;;;5133022;27;20190;-86
2023/08/05 10:31:34;;;;;;;9.13;6.60;;;17.20;99.90;;;;;;5140736;27;20558;-84
2023/08/05 10:34:21;;;;;;;9.15;5.93;;;17.20;99.90;;;;;;5132392;27;20266;-86
2023/08/05 10:36:59;;;;;;;8.15;6.07;;;17.10;99.90;;;;;;5132480;27;20255;-85
2023/08/05 10:39:47;;;;;;;10.40;5.97;;;17.20;99.90;;;;;;5132176;27;20697;-86
2023/08/05 10:42:38;;;;;;;10.95;5.28;;;17.20;99.90;;;;;;5144538;27;20196;-86
2023/08/05 10:45:11;;;;;;;7.95;5.32;;;17.30;99.90;;;;;;5159579;27;20201;-86
2023/08/05 10:47:50;;;;;;;10.57;6.65;;;17.30;99.90;;;;;;5170764;27;20193;-85
2023/08/05 10:50:21;;;;;;;10.93;6.35;;;17.40;99.90;;;;;;5143112;27;20658;-86
2023/08/05 10:52:54;;;;;;;12.30;6.88;;;17.40;99.90;;;;;;5158165;27;20193;-86
2023/08/05 10:55:30;;;;;;;11.48;7.38;;;17.40;99.90;;;;;;5145984;27;20275;-86
2023/08/05 10:58:02;;;;;;;67.78;55.10;;;17.40;99.90;;;;;;5131095;27;20201;-86
2023/08/05 11:00:42;;;;;;;90.30;65.70;;;17.40;99.90;;;;;;5137719;27;20193;-87
2023/08/05 11:03:43;;;;;;;30.77;24.00;;;17.40;99.90;;;;;;5132694;27;20223;-86
2023/08/05 11:06:14;;;;;;;12.35;7.18;;;17.40;99.90;;;;;;5136022;27;20190;-85
2023/08/05 11:08:45;;;;;;;10.85;5.80;;;17.50;99.90;;;;;;5135684;27;20681;-86
2023/08/05 11:11:18;;;;;;;8.68;3.88;;;17.50;99.90;;;;;;5135874;27;20189;-86
2023/08/05 11:13:50;;;;;;;8.95;3.47;;;17.50;99.90;;;;;;5144600;27;20289;-86
2023/08/05 11:16:23;;;;;;;9.43;2.92;;;17.50;99.90;;;;;;5154685;27;20633;-85
2023/08/05 11:19:00;;;;;;;9.85;4.18;;;17.50;99.90;;;;;;5146436;27;20724;-86
2023/08/05 11:21:32;;;;;;;8.30;3.42;;;17.50;99.90;;;;;;5135668;27;20266;-86
2023/08/05 11:24:03;;;;;;;8.25;3.35;;;17.50;99.90;;;;;;5135639;27;20198;-86
2023/08/05 11:26:37;;;;;;;10.52;3.05;;;17.40;99.90;;;;;;5155690;27;20567;-86
2023/08/05 11:29:09;;;;;;;10.98;3.40;;;17.50;99.90;;;;;;5150072;27;20201;-85
2023/08/05 11:31:51;;;;;;;10.15;2.90;;;17.40;99.90;;;;;;5153989;27;20190;-87
2023/08/05 11:34:26;;;;;;;8.85;2.35;;;17.40;99.90;;;;;;5145170;27;20205;-87
2023/08/05 11:36:59;;;;;;;11.90;2.78;;;17.20;99.90;;;;;;5149482;27;20591;-88
2023/08/05 11:39:30;;;;;;;12.73;3.63;;;17.00;99.90;;;;;;5137362;27;20217;-88
2023/08/05 11:42:04;;;;;;;12.80;3.17;;;17.00;99.90;;;;;;5139282;27;20274;-87
2023/08/05 11:44:35;;;;;;;9.52;2.60;;;16.90;99.90;;;;;;5137010;27;20193;-87
2023/08/05 11:47:06;;;;;;;11.18;3.15;;;16.90;99.90;;;;;;5136409;27;20294;-87
2023/08/05 11:49:41;;;;;;;8.52;2.63;;;16.90;99.90;;;;;;5136377;27;20194;-87
2023/08/05 11:52:13;;;;;;;10.98;2.67;;;16.90;99.90;;;;;;5137041;27;20203;-87
2023/08/05 11:54:47;;;;;;;14.95;3.40;;;16.90;99.90;;;;;;5136632;27;20212;-88
2023/08/05 11:57:26;;;;;;;9.85;2.35;;;17.00;99.90;;;;;;5144077;27;20184;-87
2023/08/05 11:59:57;;;;;;;11.70;3.28;;;17.00;99.90;;;;;;5158023;27;20218;-87
2023/08/05 12:02:28;;;;;;;12.73;3.30;;;17.00;99.90;;;;;;5151078;27;20190;-86
2023/08/05 12:05:01;;;;;;;12.57;3.00;;;17.00;99.90;;;;;;5140198;27;20198;-87
2023/08/05 12:07:31;;;;;;;12.35;3.33;;;17.00;99.90;;;;;;5140700;27;20221;-86
2023/08/05 12:10:09;;;;;;;15.80;3.70;;;17.00;99.90;;;;;;5137122;27;20210;-85
2023/08/05 12:12:45;;;;;;;10.57;2.80;;;17.00;99.90;;;;;;5134984;27;20573;-86
2023/08/05 12:15:17;;;;;;;12.13;3.08;;;16.90;99.90;;;;;;5136403;27;20193;-85
2023/08/05 12:17:55;;;;;;;9.52;3.05;;;16.90;99.90;;;;;;5155554;27;20221;-86
2023/08/05 12:20:27;;;;;;;11.02;2.97;;;16.90;99.90;;;;;;5148843;27;20231;-86
2023/08/05 12:22:58;;;;;;;12.63;3.60;;;16.90;99.90;;;;;;5134805;27;20210;-87
2023/08/05 12:25:30;;;;;;;18.88;3.78;;;16.90;99.90;;;;;;5131885;27;20190;-86
2023/08/05 12:28:04;;;;;;;12.88;3.22;;;17.00;99.90;;;;;;5149864;27;20656;-86
2023/08/05 12:30:35;;;;;;;15.75;3.40;;;16.90;99.90;;;;;;5137624;27;20208;-84
2023/08/05 12:33:07;;;;;;;11.57;3.05;;;16.90;99.90;;;;;;5153784;27;20236;-86
2023/08/05 12:35:38;;;;;;;14.43;2.78;;;16.90;99.90;;;;;;5161865;27;20203;-89
2023/08/05 12:38:09;;;;;;;12.70;2.92;;;16.90;99.90;;;;;;5136941;27;20206;-86
2023/08/05 12:40:40;;;;;;;15.82;3.50;;;16.90;99.90;;;;;;5139075;27;20226;-86
2023/08/05 12:43:14;;;;;;;14.20;3.00;;;16.90;99.90;;;;;;5156123;27;20208;-87
2023/08/05 12:45:45;;;;;;;13.93;3.25;;;16.90;99.90;;;;;;5155563;27;20222;-87
2023/08/05 12:48:16;;;;;;;12.48;2.90;;;16.90;99.90;;;;;;5157270;27;20645;-87
2023/08/05 12:50:50;;;;;;;9.60;2.60;;;16.80;99.90;;;;;;5157572;27;20197;-87
2023/08/05 12:53:20;;;;;;;11.65;2.65;;;16.80;99.90;;;;;;5156207;27;20211;-87
2023/08/05 12:55:51;;;;;;;13.70;2.78;;;16.80;99.90;;;;;;5158970;27;20193;-87
2023/08/05 12:58:24;;;;;;;16.20;3.05;;;16.80;99.90;;;;;;5156004;27;20204;-87
2023/08/05 13:00:55;;;;;;;11.23;3.03;;;16.90;99.90;;;;;;5137208;27;20312;-85
2023/08/05 13:03:26;;;;;;;9.50;2.78;;;16.80;99.90;;;;;;5135307;27;20186;-86
2023/08/05 13:05:59;;;;;;;12.00;2.90;;;16.80;99.90;;;;;;5134204;27;20194;-84
2023/08/05 13:08:30;;;;;;;13.50;2.53;;;16.80;99.90;;;;;;5138265;27;20198;-84
2023/08/05 13:11:01;;;;;;;13.25;2.83;;;16.80;99.90;;;;;;5150447;27;20182;-87
2023/08/05 13:13:37;;;;;;;15.13;2.90;;;16.80;99.90;;;;;;5150921;27;20190;-86
2023/08/05 13:16:08;;;;;;;12.32;2.90;;;16.80;99.90;;;;;;5152256;27;20225;-86
2023/08/05 13:18:39;;;;;;;13.23;2.97;;;16.80;99.90;;;;;;5137774;27;20255;-84
2023/08/05 13:21:10;;;;;;;14.20;2.78;;;16.80;99.90;;;;;;5134876;27;20305;-87